createdAt,value
2023-04-21T00:00:20.476Z,99.90
2023-04-21T00:02:48.661Z,99.90
2023-04-21T00:05:16.173Z,99.90
2023-04-21T00:07:43.909Z,99.90
2023-04-21T00:10:12.392Z,99.90
2023-04-21T00:12:40.149Z,99.90
2023-04-21T00:15:11.631Z,99.90
2023-04-21T00:17:39.552Z,99.90
2023-04-21T00:20:07.924Z,99.90
2023-04-21T00:22:35.298Z,99.90
2023-04-21T00:25:02.997Z,99.90
2023-04-21T00:27:30.149Z,99.90
2023-04-21T00:29:57.587Z,99.90
2023-04-21T00:32:24.952Z,99.90
2023-04-21T00:34:54.839Z,99.90
2023-04-21T00:37:22.123Z,99.90
2023-04-21T00:39:49.361Z,99.90
2023-04-21T00:42:17.899Z,99.90
2023-04-21T00:44:45.320Z,99.90
2023-04-21T00:47:12.934Z,99.90
2023-04-21T00:49:40.657Z,99.90
2023-04-21T00:52:09.216Z,99.90
2023-04-21T00:54:36.995Z,99.90
2023-04-21T00:57:04.977Z,99.90
2023-04-21T00:59:32.327Z,99.90
2023-04-21T01:01:59.759Z,99.90
2023-04-21T01:04:27.533Z,99.90
2023-04-21T01:06:54.929Z,99.90
2023-04-21T01:09:24.173Z,99.90
2023-04-21T01:12:27.150Z,99.90
2023-04-21T01:14:54.266Z,99.90
2023-04-21T01:17:21.859Z,99.90
2023-04-21T01:19:50.730Z,99.90
2023-04-21T01:22:18.432Z,99.90
2023-04-21T01:24:48.301Z,99.90
2023-04-21T01:27:20.468Z,99.90
2023-04-21T01:29:52.317Z,99.90
2023-04-21T01:32:26.681Z,99.90
2023-04-21T01:34:54.764Z,99.90
2023-04-21T01:37:26.651Z,99.90
2023-04-21T01:39:56.674Z,99.90
2023-04-21T01:42:26.388Z,99.90
2023-04-21T01:44:55.451Z,99.90
2023-04-21T01:47:23.734Z,99.90
2023-04-21T01:49:51.073Z,99.90
2023-04-21T01:52:18.409Z,99.90
2023-04-21T01:54:45.760Z,99.90
2023-04-21T01:57:13.470Z,99.90
2023-04-21T01:59:41.121Z,99.90
2023-04-21T02:02:08.961Z,99.90
2023-04-21T02:04:36.789Z,99.90
2023-04-21T02:07:04.070Z,99.90
2023-04-21T02:09:32.037Z,99.90
2023-04-21T02:11:59.701Z,99.90
2023-04-21T02:14:26.972Z,99.90
2023-04-21T02:16:56.507Z,99.90
2023-04-21T02:19:25.971Z,99.90
2023-04-21T02:21:53.173Z,99.90
2023-04-21T02:24:20.671Z,99.90
2023-04-21T02:26:51.248Z,99.90
2023-04-21T02:29:18.852Z,99.90
2023-04-21T02:31:57.764Z,99.90
2023-04-21T02:34:27.255Z,99.90
2023-04-21T02:36:54.804Z,99.90
2023-04-21T02:39:22.169Z,99.90
2023-04-21T02:41:49.283Z,99.90
2023-04-21T02:44:16.788Z,99.90
2023-04-21T02:46:44.544Z,99.90
2023-04-21T02:49:12.149Z,99.90
2023-04-21T02:51:39.347Z,99.90
2023-04-21T02:54:06.649Z,99.90
2023-04-21T02:56:36.575Z,99.90
2023-04-21T02:59:03.762Z,99.90
2023-04-21T03:01:31.074Z,99.90
2023-04-21T03:03:58.736Z,99.90
2023-04-21T03:06:26.022Z,99.90
2023-04-21T03:08:53.191Z,99.90
2023-04-21T03:11:20.332Z,99.90
2023-04-21T03:13:47.605Z,99.90
2023-04-21T03:16:14.889Z,99.90
2023-04-21T03:18:42.202Z,99.90
2023-04-21T03:21:09.737Z,99.90
2023-04-21T03:23:37.621Z,99.90
2023-04-21T03:26:08.555Z,99.90
2023-04-21T03:28:35.907Z,99.90
2023-04-21T03:31:03.082Z,99.90
2023-04-21T03:33:30.471Z,99.90
2023-04-21T03:35:57.798Z,99.90
2023-04-21T03:38:25.472Z,99.90
2023-04-21T03:40:52.567Z,99.90
2023-04-21T03:43:19.788Z,99.90
2023-04-21T03:45:47.104Z,99.90
2023-04-21T03:48:14.347Z,99.90
2023-04-21T03:50:41.716Z,99.90
2023-04-21T03:53:09.409Z,99.90
2023-04-21T03:55:36.760Z,99.90
2023-04-21T03:58:04.073Z,99.90
2023-04-21T04:00:31.441Z,99.90
2023-04-21T04:02:59.039Z,99.90
2023-04-21T04:05:26.697Z,99.90
2023-04-21T04:07:53.939Z,99.90
2023-04-21T04:10:21.574Z,99.90
2023-04-21T04:12:48.916Z,99.90
2023-04-21T04:15:16.412Z,99.90
2023-04-21T04:17:43.849Z,99.90
2023-04-21T04:20:11.270Z,99.90
2023-04-21T04:22:38.717Z,99.90
2023-04-21T04:25:06.425Z,99.90
2023-04-21T04:27:34.654Z,99.90
2023-04-21T04:30:01.878Z,99.90
2023-04-21T04:32:29.290Z,99.90
2023-04-21T04:34:56.561Z,99.90
2023-04-21T04:37:23.737Z,99.90
2023-04-21T04:39:53.940Z,99.90
2023-04-21T04:42:21.505Z,99.90
2023-04-21T04:44:48.891Z,99.90
2023-04-21T04:47:16.150Z,99.90
2023-04-21T04:49:43.945Z,99.90
2023-04-21T04:52:11.287Z,99.90
2023-04-21T04:54:38.576Z,99.90
2023-04-21T04:57:05.951Z,99.90
2023-04-21T04:59:33.286Z,99.90
2023-04-21T05:02:00.770Z,99.90
2023-04-21T05:04:28.650Z,99.90
2023-04-21T05:06:56.390Z,99.90
2023-04-21T05:09:23.611Z,99.90
2023-04-21T05:11:50.795Z,99.90
2023-04-21T05:14:18.447Z,99.90
2023-04-21T05:16:46.311Z,99.90
2023-04-21T05:19:13.461Z,99.90
2023-04-21T05:21:40.948Z,99.90
2023-04-21T05:24:08.139Z,99.90
2023-04-21T05:26:35.672Z,99.90
2023-04-21T05:29:03.112Z,99.90
2023-04-21T05:31:30.686Z,99.90
2023-04-21T05:33:57.988Z,99.90
2023-04-21T05:36:28.115Z,99.90
2023-04-21T05:38:55.372Z,99.90
2023-04-21T05:41:22.912Z,99.90
2023-04-21T05:43:50.206Z,99.90
2023-04-21T05:46:17.626Z,99.90
2023-04-21T05:48:45.081Z,99.90
2023-04-21T05:51:14.242Z,99.90
2023-04-21T05:53:43.126Z,99.90
2023-04-21T05:56:13.120Z,99.90
2023-04-21T05:58:40.488Z,99.90
2023-04-21T06:01:07.801Z,99.90
2023-04-21T06:03:35.499Z,99.90
2023-04-21T06:06:04.514Z,99.90
2023-04-21T06:08:31.962Z,99.90
2023-04-21T06:11:00.542Z,99.90
2023-04-21T06:13:27.956Z,99.90
2023-04-21T06:15:55.762Z,99.90
2023-04-21T06:18:24.429Z,99.90
2023-04-21T06:20:52.382Z,99.90
2023-04-21T06:23:19.563Z,99.90
2023-04-21T06:25:47.067Z,99.90
2023-04-21T06:28:14.647Z,99.90
2023-04-21T06:30:41.882Z,99.90
2023-04-21T06:33:10.076Z,99.90
2023-04-21T06:35:37.753Z,99.90
2023-04-21T06:38:05.061Z,99.90
2023-04-21T06:40:32.424Z,99.90
2023-04-21T06:42:59.721Z,99.90
2023-04-21T06:45:26.912Z,99.90
2023-04-21T06:47:54.119Z,99.90
2023-04-21T06:50:21.926Z,99.90
2023-04-21T06:52:49.205Z,99.90
2023-04-21T06:55:16.496Z,99.90
2023-04-21T06:57:43.838Z,99.90
2023-04-21T07:00:12.492Z,99.90
2023-04-21T07:02:40.030Z,99.90
2023-04-21T07:05:07.753Z,99.90
2023-04-21T07:07:35.047Z,99.90
2023-04-21T07:10:02.281Z,99.90
2023-04-21T07:12:29.654Z,99.90
2023-04-21T07:14:57.101Z,99.90
2023-04-21T07:17:24.290Z,99.90
2023-04-21T07:19:51.548Z,99.90
2023-04-21T07:22:18.542Z,99.90
2023-04-21T07:24:45.791Z,99.90
2023-04-21T07:27:12.987Z,99.90
2023-04-21T07:29:40.302Z,99.90
2023-04-21T07:32:07.748Z,99.90
2023-04-21T07:34:37.691Z,99.90
2023-04-21T07:37:05.079Z,99.90
2023-04-21T07:39:32.701Z,99.90
2023-04-21T07:41:59.961Z,99.90
2023-04-21T07:44:29.523Z,99.90
2023-04-21T07:46:56.867Z,99.90
2023-04-21T07:49:24.137Z,99.90
2023-04-21T07:51:51.449Z,99.90
2023-04-21T07:54:18.829Z,99.90
2023-04-21T07:56:46.344Z,99.90
2023-04-21T07:59:13.508Z,99.90
2023-04-21T08:01:40.904Z,99.90
2023-04-21T08:04:08.336Z,99.90
2023-04-21T08:06:35.730Z,99.90
2023-04-21T08:09:03.075Z,99.90
2023-04-21T08:11:30.359Z,99.90
2023-04-21T08:13:58.124Z,99.90
2023-04-21T08:16:25.298Z,99.90
2023-04-21T08:18:52.492Z,99.90
2023-04-21T08:21:20.043Z,99.90
2023-04-21T08:23:48.149Z,99.90
2023-04-21T08:26:15.903Z,99.90
2023-04-21T08:28:43.336Z,99.90
2023-04-21T08:31:11.827Z,99.90
2023-04-21T08:33:46.730Z,99.90
2023-04-21T08:36:28.410Z,99.90
2023-04-21T08:38:56.861Z,99.90
2023-04-21T08:41:25.738Z,99.90
2023-04-21T08:43:53.612Z,99.90
2023-04-21T08:46:21.941Z,99.90
2023-04-21T08:48:49.391Z,99.90
2023-04-21T08:51:23.670Z,99.90
2023-04-21T08:53:51.201Z,99.90
2023-04-21T08:56:20.823Z,99.90
2023-04-21T08:58:48.061Z,99.90
2023-04-21T09:01:15.351Z,99.90
2023-04-21T09:03:42.798Z,99.90
2023-04-21T09:06:12.914Z,99.90
2023-04-21T09:08:43.673Z,99.90
2023-04-21T09:11:17.447Z,99.90
2023-04-21T09:13:44.875Z,99.90
2023-04-21T09:16:22.405Z,99.90
2023-04-21T09:18:50.725Z,99.90
2023-04-21T09:21:20.567Z,99.90
2023-04-21T09:23:53.089Z,99.90
2023-04-21T09:26:23.379Z,99.90
2023-04-21T09:28:52.235Z,99.90
2023-04-21T09:31:23.962Z,99.90
2023-04-21T09:33:58.729Z,99.90
2023-04-21T09:36:30.810Z,99.90
2023-04-21T09:41:33.395Z,99.90
2023-04-21T09:44:02.053Z,99.90
2023-04-21T09:46:32.547Z,99.90
2023-04-21T09:49:02.059Z,99.90
2023-04-21T09:51:49.083Z,99.90
2023-04-21T09:56:56.733Z,99.90
2023-04-21T09:59:30.362Z,99.90
2023-04-21T10:02:00.111Z,99.90
2023-04-21T10:04:29.422Z,99.90
2023-04-21T10:06:57.352Z,99.90
2023-04-21T10:09:28.091Z,99.90
2023-04-21T10:11:56.063Z,99.90
2023-04-21T10:14:24.022Z,99.90
2023-04-21T10:17:18.185Z,99.90
2023-04-21T10:19:51.283Z,99.90
2023-04-21T10:22:32.529Z,99.90
2023-04-21T10:25:02.438Z,99.90
2023-04-21T10:27:43.621Z,99.90
2023-04-21T10:30:26.941Z,99.90
2023-04-21T10:33:05.256Z,99.90
2023-04-21T10:36:00.585Z,99.90
2023-04-21T10:38:44.085Z,99.90
2023-04-21T10:41:31.312Z,99.90
2023-04-21T10:44:14.269Z,99.90
2023-04-21T10:46:49.822Z,99.90
2023-04-21T10:49:30.930Z,99.60
2023-04-21T10:52:02.849Z,99.90
2023-04-21T10:54:48.441Z,99.90
2023-04-21T10:57:18.059Z,99.00
2023-04-21T10:59:46.572Z,98.70
2023-04-21T11:02:17.056Z,98.30
2023-04-21T11:04:49.105Z,97.70
2023-04-21T11:07:26.135Z,97.10
2023-04-21T11:10:00.744Z,96.40
2023-04-21T11:12:32.628Z,96.00
2023-04-21T11:15:03.055Z,96.50
2023-04-21T11:17:30.382Z,96.70
2023-04-21T11:19:57.662Z,96.10
2023-04-21T11:22:27.193Z,95.70
2023-04-21T11:24:57.347Z,96.10
2023-04-21T11:27:27.745Z,95.10
2023-04-21T11:29:55.074Z,93.80
2023-04-21T11:32:22.403Z,93.60
2023-04-21T11:34:49.884Z,93.60
2023-04-21T11:37:27.271Z,93.40
2023-04-21T11:40:01.797Z,92.90
2023-04-21T11:42:29.395Z,92.50
2023-04-21T11:45:01.706Z,92.30
2023-04-21T11:47:29.435Z,92.10
2023-04-21T11:49:58.547Z,91.50
2023-04-21T11:52:37.035Z,90.70
2023-04-21T11:55:12.006Z,90.40
2023-04-21T11:57:41.653Z,90.40
2023-04-21T12:00:15.875Z,91.10
2023-04-21T12:02:44.504Z,90.70
2023-04-21T12:05:13.977Z,90.10
2023-04-21T12:07:46.832Z,89.60
2023-04-21T12:10:19.738Z,88.10
2023-04-21T12:12:47.280Z,85.90
2023-04-21T12:15:24.436Z,84.50
2023-04-21T12:17:53.859Z,82.50
2023-04-21T12:20:22.871Z,82.00
2023-04-21T12:22:51.104Z,83.00
2023-04-21T12:25:18.514Z,84.10
2023-04-21T12:28:04.364Z,84.00
2023-04-21T12:30:32.156Z,82.70
2023-04-21T12:33:01.308Z,83.00
2023-04-21T12:35:28.998Z,82.90
2023-04-21T12:37:56.712Z,82.40
2023-04-21T12:40:27.393Z,82.00
2023-04-21T12:42:54.659Z,81.80
2023-04-21T12:45:21.881Z,82.20
2023-04-21T12:47:49.237Z,82.10
2023-04-21T12:50:16.678Z,81.70
2023-04-21T12:52:44.205Z,81.90
2023-04-21T12:55:13.701Z,81.60
2023-04-21T12:57:41.264Z,80.90
2023-04-21T13:00:13.349Z,82.20
2023-04-21T13:02:41.286Z,82.10
2023-04-21T13:05:10.671Z,81.70
2023-04-21T13:07:52.829Z,80.80
2023-04-21T13:10:20.247Z,80.40
2023-04-21T13:12:47.505Z,80.50
2023-04-21T13:15:14.895Z,80.00
2023-04-21T13:17:42.482Z,81.10
2023-04-21T13:20:10.272Z,81.90
2023-04-21T13:22:40.289Z,81.80
2023-04-21T13:25:08.884Z,80.50
2023-04-21T13:27:38.478Z,80.00
2023-04-21T13:30:10.152Z,80.70
2023-04-21T13:32:39.213Z,81.60
2023-04-21T13:35:09.566Z,82.70
2023-04-21T13:37:40.991Z,82.20
2023-04-21T13:40:10.505Z,81.30
2023-04-21T13:42:38.950Z,81.50
2023-04-21T13:45:07.425Z,81.70
2023-04-21T13:47:35.547Z,81.00
2023-04-21T13:50:03.355Z,79.20
2023-04-21T13:52:32.221Z,79.10
2023-04-21T13:54:59.434Z,79.40
2023-04-21T13:57:26.879Z,78.70
2023-04-21T13:59:54.551Z,78.50
2023-04-21T14:02:23.822Z,78.80
2023-04-21T14:04:52.118Z,79.10
2023-04-21T14:07:20.595Z,79.00
2023-04-21T14:09:47.836Z,79.30
2023-04-21T14:12:15.212Z,78.50
2023-04-21T14:14:42.637Z,78.80
2023-04-21T14:17:10.142Z,78.50
2023-04-21T14:19:37.451Z,78.50
2023-04-21T14:22:04.647Z,77.50
2023-04-21T14:24:32.643Z,77.00
2023-04-21T14:27:00.097Z,77.80
2023-04-21T14:29:27.481Z,78.70
2023-04-21T14:31:58.176Z,78.50
2023-04-21T14:34:26.532Z,78.90
2023-04-21T14:36:54.183Z,79.30
2023-04-21T14:39:21.473Z,77.20
2023-04-21T14:41:51.779Z,77.10
2023-04-21T14:44:19.373Z,77.40
2023-04-21T14:46:57.444Z,77.00
2023-04-21T14:49:31.599Z,76.70
2023-04-21T14:51:59.111Z,76.90
2023-04-21T14:54:26.457Z,77.50
2023-04-21T14:57:03.427Z,77.40
2023-04-21T14:59:38.595Z,76.60
2023-04-21T15:02:05.897Z,75.30
2023-04-21T15:04:33.615Z,75.50
2023-04-21T15:07:01.856Z,76.70
2023-04-21T15:09:29.365Z,76.10
2023-04-21T15:11:57.338Z,75.60
2023-04-21T15:14:24.568Z,75.60
2023-04-21T15:16:52.062Z,75.80
2023-04-21T15:19:19.726Z,75.10
2023-04-21T15:21:47.641Z,75.00
2023-04-21T15:24:14.861Z,74.50
2023-04-21T15:26:44.914Z,73.70
2023-04-21T15:29:12.114Z,74.00
2023-04-21T15:31:40.160Z,74.20
2023-04-21T15:34:07.540Z,74.30
2023-04-21T15:36:34.813Z,75.00
2023-04-21T15:39:02.228Z,74.20
2023-04-21T15:41:31.767Z,74.00
2023-04-21T15:44:00.243Z,73.20
2023-04-21T15:46:27.489Z,73.40
2023-04-21T15:48:54.871Z,73.70
2023-04-21T15:51:22.357Z,73.80
2023-04-21T15:53:50.064Z,74.00
2023-04-21T15:56:17.410Z,74.80
2023-04-21T15:58:44.774Z,73.60
2023-04-21T16:01:12.729Z,73.10
2023-04-21T16:03:40.687Z,73.00
2023-04-21T16:06:08.614Z,73.40
2023-04-21T16:08:36.092Z,73.50
2023-04-21T16:11:03.243Z,73.90
2023-04-21T16:13:30.692Z,73.80
2023-04-21T16:15:58.038Z,73.40
2023-04-21T16:18:25.920Z,73.30
2023-04-21T16:20:53.364Z,72.60
2023-04-21T16:23:20.745Z,71.90
2023-04-21T16:25:48.782Z,71.70
2023-04-21T16:28:16.237Z,71.80
2023-04-21T16:30:43.952Z,71.50
2023-04-21T16:33:11.694Z,71.20
2023-04-21T16:35:39.482Z,70.60
2023-04-21T16:38:07.149Z,70.20
2023-04-21T16:40:34.504Z,70.30
2023-04-21T16:43:02.134Z,70.50
2023-04-21T16:45:30.109Z,71.00
2023-04-21T16:47:58.191Z,71.50
2023-04-21T16:50:25.709Z,71.50
2023-04-21T16:52:52.899Z,71.50
2023-04-21T16:55:20.466Z,71.50
2023-04-21T16:57:47.997Z,71.40
2023-04-21T17:00:15.772Z,71.30
2023-04-21T17:02:44.066Z,71.40
2023-04-21T17:05:17.037Z,71.30
2023-04-21T17:07:45.283Z,71.00
2023-04-21T17:10:12.658Z,71.20
2023-04-21T17:12:40.019Z,71.70
2023-04-21T17:15:07.829Z,71.60
2023-04-21T17:17:43.151Z,71.20
2023-04-21T17:20:11.601Z,71.10
2023-04-21T17:22:40.244Z,71.30
2023-04-21T17:25:17.738Z,71.30
2023-04-21T17:27:45.081Z,71.20
2023-04-21T17:30:14.334Z,71.30
2023-04-21T17:32:42.339Z,71.60
2023-04-21T17:35:09.904Z,72.00
2023-04-21T17:37:38.093Z,73.00
2023-04-21T17:40:23.082Z,74.60
2023-04-21T17:42:50.215Z,76.40
2023-04-21T17:45:17.872Z,78.00
2023-04-21T17:47:45.619Z,79.00
2023-04-21T17:50:23.558Z,80.10
2023-04-21T17:52:54.221Z,81.00
2023-04-21T17:55:21.813Z,81.60
2023-04-21T17:57:53.588Z,82.30
2023-04-21T18:00:20.817Z,83.00
2023-04-21T18:02:48.187Z,83.50
2023-04-21T18:05:16.137Z,84.00
2023-04-21T18:07:43.655Z,84.50
2023-04-21T18:10:11.299Z,85.10
2023-04-21T18:12:39.891Z,85.60
2023-04-21T18:15:08.236Z,86.00
2023-04-21T18:17:37.449Z,86.40
2023-04-21T18:20:05.619Z,86.70
2023-04-21T18:22:33.466Z,87.00
2023-04-21T18:25:00.976Z,87.40
2023-04-21T18:27:28.453Z,87.60
2023-04-21T18:29:56.080Z,87.80
2023-04-21T18:32:23.382Z,87.90
2023-04-21T18:34:50.724Z,87.90
2023-04-21T18:37:17.949Z,87.90
2023-04-21T18:39:45.196Z,88.10
2023-04-21T18:42:12.513Z,88.20
2023-04-21T18:44:40.236Z,88.30
2023-04-21T18:47:07.690Z,88.50
2023-04-21T18:49:35.134Z,88.80
2023-04-21T18:52:02.465Z,89.30
2023-04-21T18:54:33.471Z,89.30
2023-04-21T18:57:01.289Z,89.50
2023-04-21T18:59:28.458Z,89.60
2023-04-21T19:01:55.668Z,90.00
2023-04-21T19:04:23.214Z,90.10
2023-04-21T19:06:50.756Z,90.20
2023-04-21T19:09:17.880Z,90.40
2023-04-21T19:11:45.726Z,90.50
2023-04-21T19:14:13.200Z,90.60
2023-04-21T19:16:40.506Z,90.60
2023-04-21T19:19:07.689Z,90.70
2023-04-21T19:21:35.576Z,90.70
2023-04-21T19:24:02.870Z,90.80
2023-04-21T19:26:30.124Z,90.90
2023-04-21T19:28:57.567Z,90.90
2023-04-21T19:31:26.034Z,91.00
2023-04-21T19:33:53.564Z,91.00
2023-04-21T19:36:22.086Z,91.10
2023-04-21T19:38:50.109Z,91.10
2023-04-21T19:41:17.443Z,91.20
2023-04-21T19:43:44.721Z,91.30
2023-04-21T19:46:12.552Z,91.20
2023-04-21T19:48:42.545Z,91.30
2023-04-21T19:51:09.976Z,91.20
2023-04-21T19:53:37.274Z,91.20
2023-04-21T19:56:04.626Z,91.30
2023-04-21T19:58:40.365Z,91.20
2023-04-21T20:01:08.841Z,91.20
2023-04-21T20:03:36.297Z,91.10
2023-04-21T20:06:05.206Z,91.10
2023-04-21T20:08:32.789Z,91.00
2023-04-21T20:11:00.039Z,91.00
2023-04-21T20:13:27.417Z,91.00
2023-04-21T20:15:55.517Z,91.00
2023-04-21T20:18:23.180Z,91.00
2023-04-21T20:20:50.496Z,91.00
2023-04-21T20:23:18.124Z,91.00
2023-04-21T20:25:45.521Z,90.90
2023-04-21T20:28:13.418Z,90.90
2023-04-21T20:30:40.475Z,91.00
2023-04-21T20:33:07.938Z,90.90
2023-04-21T20:35:39.609Z,90.90
2023-04-21T20:38:08.196Z,90.90
2023-04-21T20:40:36.201Z,90.90
2023-04-21T20:43:06.664Z,90.90
2023-04-21T20:45:34.816Z,90.90
2023-04-21T20:48:02.198Z,90.90
2023-04-21T20:50:29.702Z,91.00
2023-04-21T20:52:57.015Z,91.00
2023-04-21T20:55:24.593Z,91.00
2023-04-21T20:57:53.376Z,91.00
2023-04-21T21:00:20.854Z,91.00
2023-04-21T21:02:48.278Z,91.30
2023-04-21T21:05:15.790Z,90.90
2023-04-21T21:07:44.078Z,91.00
2023-04-21T21:10:11.736Z,91.00
2023-04-21T21:12:39.202Z,91.00
2023-04-21T21:15:07.210Z,91.00
2023-04-21T21:17:35.899Z,91.00
2023-04-21T21:20:03.649Z,91.10
2023-04-21T21:22:30.933Z,91.20
2023-04-21T21:24:58.259Z,91.20
2023-04-21T21:27:25.551Z,91.30
2023-04-21T21:29:52.793Z,91.30
2023-04-21T21:32:20.324Z,91.40
2023-04-21T21:34:58.285Z,91.40
2023-04-21T21:37:25.767Z,91.50
2023-04-21T21:39:55.113Z,91.50
2023-04-21T21:42:22.911Z,91.60
2023-04-21T21:44:50.267Z,91.60
2023-04-21T21:47:20.310Z,91.70
2023-04-21T21:49:47.666Z,91.80
2023-04-21T21:52:17.417Z,91.80
2023-04-21T21:54:44.630Z,91.80
2023-04-21T21:57:12.115Z,91.80
2023-04-21T21:59:40.026Z,91.90
2023-04-21T22:02:07.684Z,91.90
2023-04-21T22:04:35.020Z,92.00
2023-04-21T22:07:02.135Z,92.00
2023-04-21T22:09:29.570Z,92.10
2023-04-21T22:11:57.252Z,92.20
2023-04-21T22:14:24.900Z,92.10
2023-04-21T22:16:57.609Z,92.20
2023-04-21T22:19:26.232Z,92.60
2023-04-21T22:21:53.531Z,92.20
2023-04-21T22:24:20.848Z,92.30
2023-04-21T22:26:48.449Z,92.30
2023-04-21T22:29:16.016Z,92.40
2023-04-21T22:31:43.340Z,92.30
2023-04-21T22:34:10.887Z,92.40
2023-04-21T22:36:38.196Z,92.40
2023-04-21T22:39:05.327Z,92.40
2023-04-21T22:41:32.786Z,92.50
2023-04-21T22:44:00.410Z,92.50
2023-04-21T22:46:33.628Z,92.50
2023-04-21T22:49:05.354Z,92.50
2023-04-21T22:51:33.386Z,92.60
2023-04-21T22:54:00.944Z,92.60
2023-04-21T22:56:30.157Z,92.70
2023-04-21T22:59:09.724Z,92.70
2023-04-21T23:01:37.096Z,92.80
2023-04-21T23:04:04.652Z,92.80
2023-04-21T23:06:32.299Z,92.90
2023-04-21T23:08:59.652Z,92.90
2023-04-21T23:11:26.766Z,93.00
2023-04-21T23:13:53.942Z,93.00
2023-04-21T23:16:22.435Z,93.10
2023-04-21T23:18:49.877Z,93.20
2023-04-21T23:21:17.370Z,93.20
2023-04-21T23:23:44.588Z,93.30
2023-04-21T23:26:11.839Z,93.30
2023-04-21T23:28:38.975Z,93.50
2023-04-21T23:31:06.635Z,93.50
2023-04-21T23:33:34.048Z,93.50
2023-04-21T23:36:01.559Z,93.60
2023-04-21T23:38:29.051Z,93.70
2023-04-21T23:40:56.271Z,93.90
2023-04-21T23:43:23.703Z,94.00
2023-04-21T23:45:51.454Z,94.00
2023-04-21T23:48:18.749Z,94.10
2023-04-21T23:50:46.389Z,94.20
2023-04-21T23:53:13.754Z,94.30
2023-04-21T23:55:41.247Z,94.30
2023-04-21T23:58:08.625Z,94.40
